createdAt,value
2019-05-29T00:01:20.368Z,2.70
2019-05-29T00:03:46.113Z,1.73
2019-05-29T00:06:14.332Z,1.73
2019-05-29T00:08:41.980Z,3.57
2019-05-29T00:11:10.140Z,2.27
2019-05-29T00:13:38.235Z,5.67
2019-05-29T00:16:06.202Z,2.80
2019-05-29T00:18:33.859Z,2.33
2019-05-29T00:21:01.649Z,5.23
2019-05-29T00:23:29.293Z,3.07
2019-05-29T00:25:56.936Z,1.93
2019-05-29T00:28:25.411Z,2.43
2019-05-29T00:30:52.898Z,5.50
2019-05-29T00:33:20.825Z,4.80
2019-05-29T00:35:48.614Z,2.17
2019-05-29T00:38:16.680Z,4.63
2019-05-29T00:40:44.627Z,2.13
2019-05-29T00:43:13.239Z,2.67
2019-05-29T00:45:41.605Z,2.87
2019-05-29T00:48:09.646Z,3.30
2019-05-29T00:50:38.272Z,3.70
2019-05-29T00:53:06.174Z,3.60
2019-05-29T00:55:33.670Z,3.27
2019-05-29T00:58:01.670Z,3.23
2019-05-29T01:00:29.206Z,4.00
2019-05-29T01:02:57.118Z,2.90
2019-05-29T01:05:25.004Z,3.00
2019-05-29T01:07:52.618Z,2.40
2019-05-29T01:10:20.856Z,2.70
2019-05-29T01:12:48.556Z,5.13
2019-05-29T01:15:17.406Z,3.07
2019-05-29T01:17:44.935Z,2.50
2019-05-29T01:20:14.012Z,2.57
2019-05-29T01:22:41.973Z,2.47
2019-05-29T01:25:09.486Z,7.00
2019-05-29T01:27:37.113Z,2.80
2019-05-29T01:30:05.181Z,1.60
2019-05-29T01:32:32.696Z,2.03
2019-05-29T01:35:00.192Z,2.40
2019-05-29T01:37:28.923Z,2.60
2019-05-29T01:39:56.341Z,2.00
2019-05-29T01:42:24.102Z,3.70
2019-05-29T01:45:06.655Z,1.83
2019-05-29T01:47:21.598Z,3.63
2019-05-29T01:49:49.829Z,2.53
2019-05-29T01:52:17.588Z,2.70
2019-05-29T01:54:45.272Z,2.40
2019-05-29T01:57:13.213Z,1.90
2019-05-29T01:59:41.171Z,1.53
2019-05-29T02:02:09.233Z,2.93
2019-05-29T02:04:36.659Z,4.17
2019-05-29T02:07:04.538Z,2.13
2019-05-29T02:09:32.049Z,2.30
2019-05-29T02:11:59.544Z,2.80
2019-05-29T02:14:27.125Z,3.23
2019-05-29T02:16:54.672Z,2.00
2019-05-29T02:19:22.322Z,3.13
2019-05-29T02:21:50.130Z,3.10
2019-05-29T02:24:19.025Z,2.67
2019-05-29T02:26:46.895Z,2.60
2019-05-29T02:29:14.413Z,3.13
2019-05-29T02:31:42.316Z,2.20
2019-05-29T02:34:10.854Z,2.40
2019-05-29T02:36:38.386Z,4.53
2019-05-29T02:39:06.840Z,2.47
2019-05-29T02:41:34.474Z,5.17
2019-05-29T02:44:02.036Z,3.20
2019-05-29T02:46:30.189Z,4.83
2019-05-29T02:48:57.936Z,4.00
2019-05-29T02:51:26.538Z,3.60
2019-05-29T02:53:55.348Z,3.43
2019-05-29T02:56:24.700Z,6.60
2019-05-29T02:58:53.702Z,3.60
2019-05-29T03:01:21.606Z,3.90
2019-05-29T03:03:51.229Z,6.50
2019-05-29T03:06:18.710Z,4.20
2019-05-29T03:08:46.238Z,4.73
2019-05-29T03:11:14.359Z,5.70
2019-05-29T03:13:41.868Z,3.63
2019-05-29T03:16:12.503Z,5.63
2019-05-29T03:18:39.560Z,3.93
2019-05-29T03:21:07.142Z,4.00
2019-05-29T03:23:36.152Z,3.57
2019-05-29T03:26:04.105Z,4.23
2019-05-29T03:28:33.026Z,4.00
2019-05-29T03:31:01.670Z,4.00
2019-05-29T03:33:35.987Z,5.23
2019-05-29T03:35:59.578Z,4.53
2019-05-29T03:38:28.293Z,3.93
2019-05-29T03:40:56.629Z,4.13
2019-05-29T03:43:24.167Z,6.17
2019-05-29T03:45:52.026Z,4.40
2019-05-29T03:48:19.532Z,4.00
2019-05-29T03:50:47.058Z,4.57
2019-05-29T03:53:14.586Z,5.13
2019-05-29T03:55:42.095Z,5.67
2019-05-29T03:58:09.844Z,4.13
2019-05-29T04:00:45.424Z,3.60
2019-05-29T04:03:07.136Z,9.13
2019-05-29T04:05:35.629Z,4.57
2019-05-29T04:08:03.663Z,3.80
2019-05-29T04:10:32.923Z,4.40
2019-05-29T04:13:00.970Z,4.23
2019-05-29T04:15:33.736Z,4.20
2019-05-29T04:18:06.939Z,4.30
2019-05-29T04:20:36.122Z,4.43
2019-05-29T04:23:05.981Z,5.53
2019-05-29T04:25:38.304Z,5.67
2019-05-29T04:28:09.760Z,4.60
2019-05-29T04:30:39.092Z,5.00
2019-05-29T04:33:07.469Z,5.30
2019-05-29T04:35:36.648Z,5.20
2019-05-29T04:38:04.525Z,4.70
2019-05-29T04:40:32.651Z,5.03
2019-05-29T04:43:00.815Z,4.37
2019-05-29T04:45:28.980Z,4.90
2019-05-29T04:47:57.323Z,7.43
2019-05-29T04:50:25.875Z,6.40
2019-05-29T04:52:53.404Z,4.13
2019-05-29T04:55:21.177Z,5.20
2019-05-29T04:57:50.950Z,5.20
2019-05-29T05:00:18.525Z,5.47
2019-05-29T05:02:46.437Z,6.30
2019-05-29T05:05:14.051Z,9.27
2019-05-29T05:07:42.105Z,7.80
2019-05-29T05:10:10.787Z,8.43
2019-05-29T05:12:40.055Z,6.70
2019-05-29T05:15:08.461Z,6.93
2019-05-29T05:17:36.304Z,8.20
2019-05-29T05:20:05.952Z,7.27
2019-05-29T05:22:34.283Z,9.63
2019-05-29T05:25:02.067Z,10.47
2019-05-29T05:27:30.134Z,10.50
2019-05-29T05:29:58.123Z,12.40
2019-05-29T05:32:25.527Z,11.83
2019-05-29T05:34:53.133Z,14.80
2019-05-29T05:37:20.677Z,13.33
2019-05-29T05:39:48.236Z,14.10
2019-05-29T05:42:17.019Z,12.40
2019-05-29T05:44:44.807Z,12.73
2019-05-29T05:47:12.383Z,11.60
2019-05-29T05:49:40.038Z,16.53
2019-05-29T05:52:07.539Z,18.60
2019-05-29T05:54:35.423Z,13.47
2019-05-29T05:57:02.999Z,15.27
2019-05-29T05:59:31.591Z,12.57
2019-05-29T06:01:59.171Z,12.43
2019-05-29T06:04:26.683Z,15.47
2019-05-29T06:06:55.868Z,15.83
2019-05-29T06:09:23.358Z,14.77
2019-05-29T06:11:51.050Z,16.53
2019-05-29T06:14:18.735Z,14.30
2019-05-29T06:16:46.299Z,15.07
2019-05-29T06:19:14.246Z,14.70
2019-05-29T06:21:42.858Z,17.03
2019-05-29T06:24:10.547Z,17.20
2019-05-29T06:26:38.977Z,18.93
2019-05-29T06:29:06.434Z,14.70
2019-05-29T06:31:35.265Z,15.03
2019-05-29T06:34:02.985Z,13.30
2019-05-29T06:36:30.587Z,17.30
2019-05-29T06:38:58.030Z,17.43
2019-05-29T06:41:25.556Z,14.73
2019-05-29T06:43:53.057Z,19.70
2019-05-29T06:46:20.905Z,13.20
2019-05-29T06:48:58.682Z,15.23
2019-05-29T06:51:18.193Z,15.20
2019-05-29T06:53:45.635Z,15.27
2019-05-29T06:56:13.183Z,16.17
2019-05-29T06:58:41.978Z,15.03
2019-05-29T07:01:09.848Z,16.37
2019-05-29T07:04:11.426Z,16.70
2019-05-29T07:06:26.304Z,15.73
2019-05-29T07:08:54.318Z,18.80
2019-05-29T07:11:21.869Z,15.57
2019-05-29T07:13:50.490Z,14.63
2019-05-29T07:16:19.666Z,14.60
2019-05-29T07:19:23.362Z,17.70
2019-05-29T07:21:16.909Z,13.67
2019-05-29T07:23:46.456Z,14.80
2019-05-29T07:26:14.033Z,19.33
2019-05-29T07:29:02.992Z,13.97
2019-05-29T07:43:11.669Z,16.33
2019-05-29T07:45:40.669Z,28.80
2019-05-29T07:48:09.297Z,16.83
2019-05-29T07:50:37.962Z,24.80
2019-05-29T07:53:05.700Z,20.57
2019-05-29T07:55:33.275Z,21.70
2019-05-29T07:58:01.720Z,21.80
2019-05-29T08:00:35.854Z,18.40
2019-05-29T08:02:58.856Z,16.57
2019-05-29T08:05:28.109Z,20.53
2019-05-29T08:07:55.674Z,15.77
2019-05-29T08:10:23.483Z,18.77
2019-05-29T08:12:55.268Z,18.97
2019-05-29T08:15:21.004Z,16.73
2019-05-29T08:17:48.551Z,15.67
2019-05-29T08:20:16.083Z,19.13
2019-05-29T08:22:44.401Z,20.13
2019-05-29T08:25:12.624Z,16.77
2019-05-29T08:27:40.649Z,19.70
2019-05-29T08:30:09.416Z,17.33
2019-05-29T08:32:37.034Z,17.37
2019-05-29T08:35:05.118Z,18.50
2019-05-29T08:37:33.407Z,16.90
2019-05-29T08:40:01.399Z,16.70
2019-05-29T08:42:29.884Z,19.60
2019-05-29T08:45:01.737Z,18.67
2019-05-29T08:47:29.377Z,22.80
2019-05-29T08:50:16.773Z,26.00
2019-05-29T08:52:26.610Z,23.80
2019-05-29T08:54:54.153Z,20.00
2019-05-29T08:57:22.026Z,27.80
2019-05-29T08:59:50.647Z,21.27
2019-05-29T09:02:18.393Z,24.27
2019-05-29T09:04:48.239Z,22.10
2019-05-29T09:07:15.824Z,26.27
2019-05-29T09:09:43.335Z,28.53
2019-05-29T09:12:10.865Z,24.93
2019-05-29T09:14:38.572Z,23.27
2019-05-29T09:17:06.250Z,23.20
2019-05-29T09:19:34.649Z,25.87
2019-05-29T09:22:02.591Z,27.50
2019-05-29T09:24:29.993Z,26.83
2019-05-29T09:26:57.402Z,27.07
2019-05-29T09:29:25.058Z,27.13
2019-05-29T09:31:52.611Z,25.63
2019-05-29T09:34:20.550Z,27.77
2019-05-29T09:36:48.973Z,27.37
2019-05-29T09:39:18.351Z,27.07
2019-05-29T09:41:46.923Z,31.93
2019-05-29T09:44:28.548Z,26.93
2019-05-29T09:46:44.308Z,24.10
2019-05-29T09:49:11.823Z,24.03
2019-05-29T09:51:39.410Z,28.80
2019-05-29T09:54:06.992Z,27.70
2019-05-29T09:56:34.655Z,26.37
2019-05-29T09:59:03.919Z,23.60
2019-05-29T10:01:32.353Z,23.20
2019-05-29T10:04:03.368Z,25.30
2019-05-29T10:06:30.088Z,23.87
2019-05-29T10:08:58.060Z,23.93
2019-05-29T10:11:26.098Z,23.20
2019-05-29T10:14:53.691Z,20.80
2019-05-29T10:17:22.600Z,20.90
2019-05-29T10:19:50.147Z,26.63
2019-05-29T10:22:18.406Z,24.50
2019-05-29T10:24:46.643Z,23.37
2019-05-29T10:27:14.198Z,22.40
2019-05-29T10:29:42.443Z,25.13
2019-05-29T10:32:10.169Z,25.93
2019-05-29T10:34:37.839Z,21.30
2019-05-29T10:37:05.477Z,21.77
2019-05-29T10:39:35.914Z,20.63
2019-05-29T10:42:03.801Z,16.53
2019-05-29T10:44:31.630Z,14.80
2019-05-29T10:46:59.520Z,16.10
2019-05-29T10:49:27.911Z,15.00
2019-05-29T10:52:12.904Z,13.87
2019-05-29T10:54:25.912Z,24.30
2019-05-29T10:56:54.828Z,15.70
2019-05-29T10:59:22.625Z,17.83
2019-05-29T11:01:51.235Z,22.27
2019-05-29T11:04:19.822Z,15.17
2019-05-29T11:06:48.034Z,16.40
2019-05-29T11:09:15.839Z,17.50
2019-05-29T11:11:43.489Z,16.93
2019-05-29T11:14:11.083Z,22.03
2019-05-29T11:16:40.006Z,20.23
2019-05-29T11:19:07.828Z,19.33
2019-05-29T11:21:35.418Z,19.47
2019-05-29T11:24:03.207Z,18.50
2019-05-29T11:26:31.022Z,16.10
2019-05-29T11:28:58.876Z,16.00
2019-05-29T11:31:28.203Z,15.93
2019-05-29T11:33:57.175Z,15.73
2019-05-29T11:36:25.114Z,16.60
2019-05-29T11:38:52.697Z,15.90
2019-05-29T11:41:26.367Z,15.87
2019-05-29T11:43:51.044Z,19.53
2019-05-29T11:46:19.096Z,18.93
2019-05-29T11:48:47.064Z,16.67
2019-05-29T11:51:14.617Z,16.33
2019-05-29T11:53:42.126Z,17.57
2019-05-29T11:56:09.565Z,16.37
2019-05-29T11:58:37.850Z,16.40
2019-05-29T12:01:05.800Z,24.27
2019-05-29T12:03:33.781Z,15.00
2019-05-29T12:06:03.219Z,15.30
2019-05-29T12:08:30.943Z,15.20
2019-05-29T12:10:59.483Z,15.60
2019-05-29T12:13:27.157Z,16.50
2019-05-29T12:15:55.796Z,15.17
2019-05-29T12:18:24.671Z,15.30
2019-05-29T12:20:53.888Z,15.03
2019-05-29T12:23:26.576Z,14.40
2019-05-29T12:26:11.642Z,13.63
2019-05-29T12:28:21.058Z,14.13
2019-05-29T12:30:49.934Z,16.20
2019-05-29T12:33:17.651Z,12.03
2019-05-29T12:35:45.626Z,15.67
2019-05-29T12:38:13.547Z,13.80
2019-05-29T12:40:41.209Z,13.70
2019-05-29T12:43:25.942Z,12.43
2019-05-29T12:45:38.479Z,12.27
2019-05-29T12:48:12.473Z,13.73
2019-05-29T12:50:35.264Z,19.10
2019-05-29T12:53:03.947Z,15.70
2019-05-29T12:55:32.227Z,13.07
2019-05-29T12:58:00.033Z,13.00
2019-05-29T13:00:27.980Z,20.40
2019-05-29T13:02:56.271Z,15.80
2019-05-29T13:05:23.971Z,16.10
2019-05-29T13:07:51.503Z,14.47
2019-05-29T13:10:30.010Z,15.90
2019-05-29T13:12:50.370Z,12.67
2019-05-29T13:15:18.927Z,12.40
2019-05-29T13:17:46.787Z,13.37
2019-05-29T13:20:21.719Z,13.57
2019-05-29T13:22:44.679Z,9.13
2019-05-29T13:25:12.448Z,6.57
2019-05-29T13:27:40.327Z,7.63
2019-05-29T13:30:08.529Z,8.03
2019-05-29T13:32:36.345Z,6.27
2019-05-29T13:35:06.176Z,7.67
2019-05-29T13:37:34.240Z,8.10
2019-05-29T13:40:06.489Z,7.77
2019-05-29T13:42:31.691Z,7.53
2019-05-29T13:45:01.618Z,8.30
2019-05-29T13:47:33.005Z,8.70
2019-05-29T13:50:05.802Z,8.63
2019-05-29T13:52:30.379Z,10.50
2019-05-29T13:54:59.230Z,7.17
2019-05-29T13:57:27.154Z,6.93
2019-05-29T13:59:55.128Z,9.33
2019-05-29T14:02:23.147Z,7.97
2019-05-29T14:04:51.529Z,7.50
2019-05-29T14:07:19.144Z,8.47
2019-05-29T14:09:46.546Z,10.20
2019-05-29T14:12:14.385Z,8.93
2019-05-29T14:14:41.740Z,7.70
2019-05-29T14:17:10.734Z,9.93
2019-05-29T14:19:38.645Z,10.70
2019-05-29T14:22:07.116Z,12.27
2019-05-29T14:24:35.296Z,16.73
2019-05-29T14:27:03.386Z,10.57
2019-05-29T14:29:31.049Z,11.37
2019-05-29T14:31:58.806Z,14.03
2019-05-29T14:34:26.722Z,13.23
2019-05-29T14:36:54.697Z,14.93
2019-05-29T14:39:22.366Z,14.73
2019-05-29T14:41:49.953Z,14.27
2019-05-29T14:44:18.083Z,13.93
2019-05-29T14:46:45.640Z,12.40
2019-05-29T14:49:13.556Z,10.70
2019-05-29T14:51:41.302Z,16.60
2019-05-29T14:54:09.162Z,11.70
2019-05-29T14:56:36.735Z,8.53
2019-05-29T14:59:05.531Z,9.93
2019-05-29T15:01:33.769Z,8.47
2019-05-29T15:04:01.564Z,11.40
2019-05-29T15:06:29.325Z,9.67
2019-05-29T15:08:58.584Z,8.40
2019-05-29T15:11:26.218Z,9.80
2019-05-29T15:13:54.225Z,7.60
2019-05-29T15:16:22.363Z,8.73
2019-05-29T15:18:50.267Z,10.10
2019-05-29T15:21:18.131Z,7.90
2019-05-29T15:23:45.695Z,8.47
2019-05-29T15:26:13.763Z,7.03
2019-05-29T15:28:41.335Z,6.80
2019-05-29T15:31:10.336Z,6.27
2019-05-29T15:33:38.018Z,5.20
2019-05-29T15:36:06.509Z,4.57
2019-05-29T15:38:34.609Z,4.37
2019-05-29T15:41:02.173Z,4.03
2019-05-29T15:43:30.200Z,4.43
2019-05-29T15:45:57.736Z,3.80
2019-05-29T15:48:25.256Z,3.67
2019-05-29T15:50:53.557Z,3.17
2019-05-29T15:53:21.092Z,3.90
2019-05-29T15:55:48.727Z,3.40
2019-05-29T15:58:17.962Z,3.20
2019-05-29T16:00:46.349Z,4.27
2019-05-29T16:03:14.131Z,3.17
2019-05-29T16:05:41.825Z,4.87
2019-05-29T16:08:09.891Z,3.90
2019-05-29T16:10:37.909Z,3.00
2019-05-29T16:13:05.421Z,4.97
2019-05-29T16:15:33.573Z,5.03
2019-05-29T16:18:02.992Z,5.23
2019-05-29T16:20:30.535Z,6.73
2019-05-29T16:22:58.379Z,6.00
2019-05-29T16:25:39.472Z,6.93
2019-05-29T16:27:55.225Z,4.90
2019-05-29T16:30:22.798Z,7.27
2019-05-29T16:32:50.557Z,5.53
2019-05-29T16:35:19.513Z,4.50
2019-05-29T16:37:47.366Z,7.27
2019-05-29T16:40:16.294Z,4.17
2019-05-29T16:42:44.025Z,4.57
2019-05-29T16:45:12.665Z,4.13
2019-05-29T16:47:40.520Z,5.60
2019-05-29T16:50:08.630Z,4.23
2019-05-29T16:52:36.196Z,6.00
2019-05-29T16:55:04.065Z,5.90
2019-05-29T16:57:31.711Z,5.67
2019-05-29T16:59:59.273Z,6.87
2019-05-29T17:02:27.107Z,7.43
2019-05-29T17:04:58.159Z,7.93
2019-05-29T17:07:24.562Z,6.17
2019-05-29T17:09:52.089Z,5.90
2019-05-29T17:12:20.514Z,6.60
2019-05-29T17:14:48.069Z,12.23
2019-05-29T17:17:16.775Z,6.30
2019-05-29T17:19:44.505Z,5.83
2019-05-29T17:22:12.309Z,8.50
2019-05-29T17:24:39.687Z,5.90
2019-05-29T17:27:07.486Z,7.10
2019-05-29T17:29:36.125Z,7.23
2019-05-29T17:32:03.667Z,7.90
2019-05-29T17:34:31.181Z,7.20
2019-05-29T17:36:58.842Z,5.50
2019-05-29T17:39:26.847Z,7.80
2019-05-29T17:41:54.501Z,7.00
2019-05-29T17:44:22.031Z,9.53
2019-05-29T17:46:49.605Z,6.50
2019-05-29T17:49:17.725Z,5.73
2019-05-29T17:51:45.431Z,4.67
2019-05-29T17:54:13.625Z,6.53
2019-05-29T17:56:41.427Z,5.13
2019-05-29T17:59:08.886Z,4.73
2019-05-29T18:01:36.437Z,6.80
2019-05-29T18:04:04.129Z,5.00
2019-05-29T18:06:31.895Z,4.40
2019-05-29T18:08:59.805Z,4.77
2019-05-29T18:11:27.745Z,4.30
2019-05-29T18:13:55.902Z,4.57
2019-05-29T18:16:23.590Z,5.47
2019-05-29T18:18:51.101Z,4.00
2019-05-29T18:21:19.585Z,6.30
2019-05-29T18:23:47.395Z,4.47
2019-05-29T18:26:14.915Z,3.80
2019-05-29T18:28:42.530Z,4.50
2019-05-29T18:31:10.031Z,6.50
2019-05-29T18:33:37.857Z,4.33
2019-05-29T18:36:05.373Z,4.70
2019-05-29T18:38:33.297Z,4.57
2019-05-29T18:41:00.961Z,4.87
2019-05-29T18:43:28.798Z,4.37
2019-05-29T18:45:56.674Z,4.50
2019-05-29T18:48:25.279Z,5.57
2019-05-29T18:50:52.997Z,3.97
2019-05-29T18:53:22.616Z,5.30
2019-05-29T18:55:50.726Z,4.63
2019-05-29T18:58:18.263Z,3.90
2019-05-29T19:00:45.995Z,5.10
2019-05-29T19:03:14.008Z,3.30
2019-05-29T19:05:42.366Z,5.77
2019-05-29T19:08:10.214Z,11.20
2019-05-29T19:10:37.950Z,4.77
2019-05-29T19:13:05.501Z,3.73
2019-05-29T19:15:33.030Z,3.80
2019-05-29T19:18:01.080Z,4.93
2019-05-29T19:20:30.383Z,4.00
2019-05-29T19:22:58.489Z,7.90
2019-05-29T19:25:26.803Z,4.50
2019-05-29T19:27:55.023Z,3.93
2019-05-29T19:30:22.854Z,7.93
2019-05-29T19:32:50.645Z,4.33
2019-05-29T19:35:18.943Z,5.10
2019-05-29T19:37:46.955Z,5.47
2019-05-29T19:40:15.226Z,9.90
2019-05-29T19:42:43.277Z,3.80
2019-05-29T19:45:11.221Z,3.63
2019-05-29T19:47:39.293Z,3.40
2019-05-29T19:50:11.152Z,5.00
2019-05-29T19:52:37.828Z,3.80
2019-05-29T19:55:06.357Z,4.60
2019-05-29T19:57:50.516Z,3.70
2019-05-29T20:00:05.626Z,4.20
2019-05-29T20:02:35.239Z,3.97
2019-05-29T20:05:03.130Z,3.97
2019-05-29T20:07:31.170Z,4.30
2019-05-29T20:09:58.740Z,5.07
2019-05-29T20:12:27.480Z,6.30
2019-05-29T20:14:55.478Z,4.83
2019-05-29T20:17:23.005Z,7.33
2019-05-29T20:19:50.969Z,3.67
2019-05-29T20:22:19.153Z,4.13
2019-05-29T20:24:48.036Z,3.53
2019-05-29T20:27:15.535Z,3.37
2019-05-29T20:29:43.117Z,5.80
2019-05-29T20:32:12.357Z,3.87
2019-05-29T20:34:41.031Z,4.17
2019-05-29T20:37:08.595Z,7.60
2019-05-29T20:39:36.886Z,3.80
2019-05-29T20:42:05.653Z,9.10
2019-05-29T20:44:34.525Z,4.00
2019-05-29T20:47:02.725Z,4.03
2019-05-29T20:49:31.828Z,4.13
2019-05-29T20:52:00.025Z,4.30
2019-05-29T20:54:27.613Z,4.73
2019-05-29T20:56:56.138Z,4.67
2019-05-29T20:59:23.673Z,5.53
2019-05-29T21:01:51.303Z,5.03
2019-05-29T21:04:18.953Z,6.00
2019-05-29T21:06:46.883Z,5.83
2019-05-29T21:09:14.473Z,4.47
2019-05-29T21:11:43.587Z,6.70
2019-05-29T21:14:11.407Z,4.00
2019-05-29T21:16:39.799Z,4.23
2019-05-29T21:19:09.178Z,4.53
2019-05-29T21:21:36.855Z,5.87
2019-05-29T21:24:04.394Z,8.63
2019-05-29T21:26:32.536Z,5.10
2019-05-29T21:29:00.349Z,5.63
2019-05-29T21:31:27.941Z,4.90
2019-05-29T21:33:55.545Z,4.87
2019-05-29T21:36:23.334Z,4.30
2019-05-29T21:38:51.144Z,4.23
2019-05-29T21:41:18.720Z,4.10
2019-05-29T21:43:47.045Z,5.07
2019-05-29T21:46:14.697Z,4.33
2019-05-29T21:48:43.354Z,11.30
2019-05-29T21:51:11.061Z,4.03
2019-05-29T21:53:39.276Z,3.97
2019-05-29T21:56:07.107Z,3.70
2019-05-29T21:58:34.654Z,4.87
2019-05-29T22:01:04.538Z,3.43
2019-05-29T22:03:32.167Z,3.27
2019-05-29T22:06:00.126Z,3.87
2019-05-29T22:08:27.600Z,4.63
2019-05-29T22:10:55.583Z,3.53
2019-05-29T22:13:24.093Z,4.90
2019-05-29T22:15:52.700Z,6.37
2019-05-29T22:18:20.470Z,3.50
2019-05-29T22:20:48.003Z,4.10
2019-05-29T22:23:15.524Z,3.40
2019-05-29T22:25:43.460Z,3.83
2019-05-29T22:28:10.997Z,4.33
2019-05-29T22:30:38.499Z,3.53
2019-05-29T22:33:06.109Z,3.17
2019-05-29T22:35:33.496Z,11.43
2019-05-29T22:38:01.888Z,3.27
2019-05-29T22:40:30.424Z,3.70
2019-05-29T22:42:58.001Z,3.90
2019-05-29T22:45:25.520Z,3.63
2019-05-29T22:47:53.711Z,6.43
2019-05-29T22:50:21.617Z,3.13
2019-05-29T22:52:49.343Z,3.40
2019-05-29T22:55:16.997Z,3.50
2019-05-29T22:57:44.602Z,2.77
2019-05-29T23:00:14.374Z,4.80
2019-05-29T23:02:41.879Z,3.30
2019-05-29T23:05:09.905Z,3.00
2019-05-29T23:07:37.382Z,3.33
2019-05-29T23:10:05.687Z,6.40
2019-05-29T23:12:33.332Z,5.23
2019-05-29T23:15:01.164Z,3.30
2019-05-29T23:17:28.709Z,2.80
2019-05-29T23:19:56.686Z,10.90
2019-05-29T23:22:24.754Z,5.83
2019-05-29T23:24:52.672Z,7.23
2019-05-29T23:27:20.494Z,3.30
2019-05-29T23:29:49.332Z,3.00
2019-05-29T23:32:17.271Z,3.97
2019-05-29T23:34:45.541Z,3.33
2019-05-29T23:37:13.968Z,3.30
2019-05-29T23:39:41.875Z,4.23
2019-05-29T23:42:09.589Z,2.53
2019-05-29T23:44:37.092Z,5.07
2019-05-29T23:47:05.379Z,3.40
2019-05-29T23:49:33.241Z,2.67
2019-05-29T23:52:02.573Z,2.07
2019-05-29T23:54:30.162Z,3.60
2019-05-29T23:56:57.964Z,2.90
2019-05-29T23:59:25.679Z,3.10
